Terminal Aerodrome Forecast
Issued by NWS

Home | Current Version | Previous Version | Text Only | Print | Product List | Glossary On
Versions: 1 2 3 4 5 6 7 8 9 10 11 12 13 14 15
000
FTUS46 KSEW 250500
TAFPAE
TAF
KPAE 250530Z 2506/2606 06003KT 2SM RA BR FEW004 OVC021
     FM250900 22003KT 4SM BR OVC015
     FM260000 VRB03KT P6SM BKN050=

USA.gov is the U.S. government's official web portal to all federal, state and local government web resources and services.